createdAt,value
2022-12-26T00:01:22.312Z,6.55
2022-12-26T00:03:50.884Z,6.49
2022-12-26T00:06:23.395Z,6.55
2022-12-26T00:08:52.205Z,6.58
2022-12-26T00:11:20.714Z,6.58
2022-12-26T00:13:49.567Z,6.55
2022-12-26T00:16:20.825Z,6.60
2022-12-26T00:18:49.903Z,6.55
2022-12-26T00:21:19.382Z,6.62
2022-12-26T00:23:49.318Z,6.61
2022-12-26T00:26:20.599Z,6.62
2022-12-26T00:28:49.387Z,6.63
2022-12-26T00:31:20.607Z,6.65
2022-12-26T00:33:49.569Z,6.70
2022-12-26T00:36:19.451Z,6.69
2022-12-26T00:38:49.626Z,6.67
2022-12-26T00:41:19.198Z,6.72
2022-12-26T00:43:47.739Z,6.73
2022-12-26T00:46:16.309Z,6.62
2022-12-26T00:48:45.195Z,6.76
2022-12-26T00:51:13.742Z,6.76
2022-12-26T00:53:42.024Z,6.68
2022-12-26T00:56:12.199Z,6.75
2022-12-26T00:58:42.581Z,6.80
2022-12-26T01:01:14.838Z,6.78
2022-12-26T01:03:44.321Z,6.83
2022-12-26T01:06:13.384Z,6.88
2022-12-26T01:08:42.111Z,6.86
2022-12-26T01:11:13.791Z,6.86
2022-12-26T01:13:42.191Z,6.89
2022-12-26T01:16:10.727Z,6.85
2022-12-26T01:18:38.955Z,6.88
2022-12-26T01:21:08.902Z,6.88
2022-12-26T01:23:40.027Z,6.88
2022-12-26T01:26:16.910Z,6.89
2022-12-26T01:28:49.984Z,6.90
2022-12-26T01:31:18.739Z,6.91
2022-12-26T01:33:47.056Z,6.89
2022-12-26T01:36:15.748Z,6.90
2022-12-26T01:38:44.065Z,6.89
2022-12-26T01:41:20.477Z,6.88
2022-12-26T01:43:56.196Z,6.84
2022-12-26T01:46:30.840Z,6.86
2022-12-26T01:49:03.200Z,6.74
2022-12-26T01:51:38.723Z,6.85
2022-12-26T01:54:40.081Z,6.83
2022-12-26T01:56:59.990Z,6.80
2022-12-26T01:59:33.284Z,6.76
2022-12-26T02:02:02.577Z,6.82
2022-12-26T02:05:03.362Z,6.79
2022-12-26T02:07:33.362Z,6.82
2022-12-26T02:10:01.985Z,6.80
2022-12-26T02:12:34.721Z,6.83
2022-12-26T02:15:11.591Z,6.79
2022-12-26T02:17:40.741Z,6.81
2022-12-26T02:20:18.827Z,6.80
2022-12-26T02:23:28.125Z,6.76
2022-12-26T02:26:31.375Z,6.77
2022-12-26T02:29:51.312Z,6.77
2022-12-26T02:32:29.431Z,6.77
2022-12-26T02:35:08.111Z,6.78
2022-12-26T02:37:52.655Z,6.69
2022-12-26T02:40:33.336Z,6.74
2022-12-26T02:43:13.374Z,6.75
2022-12-26T02:46:07.176Z,6.76
2022-12-26T02:48:45.687Z,6.74
2022-12-26T02:51:39.060Z,6.76
2022-12-26T02:54:33.180Z,6.71
2022-12-26T02:57:23.103Z,6.73
2022-12-26T03:00:16.373Z,6.75
2022-12-26T03:03:07.938Z,6.71
2022-12-26T03:06:05.725Z,6.69
2022-12-26T03:08:55.689Z,6.68
2022-12-26T03:11:44.834Z,6.70
2022-12-26T03:14:19.281Z,6.67
2022-12-26T03:17:08.769Z,6.62
2022-12-26T03:19:58.298Z,6.62
2022-12-26T03:22:33.542Z,6.60
2022-12-26T03:25:23.551Z,6.64
2022-12-26T03:27:52.186Z,6.62
2022-12-26T03:30:37.930Z,6.65
2022-12-26T03:33:26.637Z,6.68
2022-12-26T03:35:54.021Z,6.65
2022-12-26T03:38:29.481Z,6.63
2022-12-26T03:41:24.969Z,6.64
2022-12-26T03:44:25.236Z,6.59
2022-12-26T03:47:24.686Z,6.62
2022-12-26T03:50:20.394Z,6.64
2022-12-26T03:53:12.375Z,6.64
2022-12-26T03:56:09.896Z,6.62
2022-12-26T03:59:03.611Z,6.63
2022-12-26T04:02:09.862Z,6.62
2022-12-26T04:05:01.164Z,6.59
2022-12-26T04:07:56.185Z,6.63
2022-12-26T04:10:47.552Z,6.61
2022-12-26T04:13:39.330Z,6.61
2022-12-26T04:16:35.123Z,6.61
2022-12-26T04:19:26.290Z,6.63
2022-12-26T04:22:18.508Z,6.66
2022-12-26T04:25:09.543Z,6.66
2022-12-26T04:27:55.118Z,6.64
2022-12-26T04:30:42.478Z,6.67
2022-12-26T04:33:33.531Z,6.69
2022-12-26T04:36:25.149Z,6.65
2022-12-26T04:39:18.251Z,6.66
2022-12-26T04:42:06.943Z,6.69
2022-12-26T04:44:37.460Z,6.69
2022-12-26T04:47:10.116Z,6.72
2022-12-26T04:50:01.440Z,6.70
2022-12-26T04:52:50.645Z,6.75
2022-12-26T04:55:19.943Z,6.74
2022-12-26T04:57:48.227Z,6.75
2022-12-26T05:00:17.446Z,6.74
2022-12-26T05:03:04.755Z,6.76
2022-12-26T05:05:55.206Z,6.74
2022-12-26T05:08:44.760Z,6.75
2022-12-26T05:11:13.124Z,6.77
2022-12-26T05:13:41.332Z,6.75
2022-12-26T05:16:27.395Z,6.72
2022-12-26T05:19:14.739Z,6.71
2022-12-26T05:22:00.929Z,6.73
2022-12-26T05:24:51.591Z,6.73
2022-12-26T05:27:38.505Z,6.75
2022-12-26T05:30:08.768Z,6.75
2022-12-26T05:32:54.280Z,6.76
2022-12-26T05:35:24.193Z,6.74
2022-12-26T05:37:52.430Z,6.77
2022-12-26T05:40:20.791Z,6.77
2022-12-26T05:42:49.036Z,6.77
2022-12-26T05:45:17.322Z,6.78
2022-12-26T05:47:51.455Z,6.75
2022-12-26T05:50:20.228Z,6.73
2022-12-26T05:52:50.130Z,6.72
2022-12-26T05:55:18.510Z,6.74
2022-12-26T05:57:46.876Z,6.75
2022-12-26T06:00:16.441Z,6.72
2022-12-26T06:02:45.039Z,6.75
2022-12-26T06:05:13.544Z,6.74
2022-12-26T06:07:42.096Z,6.71
2022-12-26T06:10:12.317Z,6.68
2022-12-26T06:12:40.671Z,6.71
2022-12-26T06:15:10.077Z,6.68
2022-12-26T06:17:38.235Z,6.68
2022-12-26T06:20:08.039Z,6.67
2022-12-26T06:22:36.430Z,6.71
2022-12-26T06:25:05.027Z,6.69
2022-12-26T06:27:34.671Z,6.66
2022-12-26T06:30:03.082Z,6.67
2022-12-26T06:32:32.519Z,6.65
2022-12-26T06:35:00.814Z,6.65
2022-12-26T06:37:29.302Z,6.67
2022-12-26T06:39:57.476Z,6.64
2022-12-26T06:42:25.873Z,6.62
2022-12-26T06:44:55.529Z,6.66
2022-12-26T06:47:23.683Z,6.67
2022-12-26T06:49:52.016Z,6.67
2022-12-26T06:52:20.191Z,6.67
2022-12-26T06:54:48.399Z,6.66
2022-12-26T06:57:16.698Z,6.63
2022-12-26T06:59:45.027Z,6.65
2022-12-26T07:02:15.184Z,6.64
2022-12-26T07:04:43.855Z,6.63
2022-12-26T07:07:12.185Z,6.64
2022-12-26T07:09:40.804Z,6.60
2022-12-26T07:12:09.154Z,6.50
2022-12-26T07:14:38.914Z,6.63
2022-12-26T07:17:07.215Z,6.68
2022-12-26T07:19:37.065Z,6.67
2022-12-26T07:22:05.798Z,6.74
2022-12-26T07:24:34.007Z,6.77
2022-12-26T07:27:02.243Z,6.74
2022-12-26T07:29:30.474Z,6.76
2022-12-26T07:32:00.032Z,6.76
2022-12-26T07:34:31.681Z,6.74
2022-12-26T07:37:02.036Z,6.70
2022-12-26T07:39:30.463Z,6.73
2022-12-26T07:41:58.663Z,6.71
2022-12-26T07:44:27.641Z,6.71
2022-12-26T07:46:56.716Z,6.68
2022-12-26T07:49:25.690Z,6.69
2022-12-26T07:51:54.155Z,6.72
2022-12-26T07:54:26.305Z,6.70
2022-12-26T07:57:15.223Z,6.76
2022-12-26T07:59:44.022Z,6.76
2022-12-26T08:02:12.676Z,6.76
2022-12-26T08:04:41.002Z,6.74
2022-12-26T08:07:09.734Z,6.71
2022-12-26T08:09:43.378Z,6.71
2022-12-26T08:12:13.123Z,6.73
2022-12-26T08:14:42.379Z,6.74
2022-12-26T08:17:10.655Z,6.76
2022-12-26T08:19:39.073Z,6.76
2022-12-26T08:22:07.284Z,6.75
2022-12-26T08:24:35.599Z,6.75
2022-12-26T08:27:06.021Z,6.74
2022-12-26T08:29:34.438Z,6.78
2022-12-26T08:32:02.750Z,6.77
2022-12-26T08:34:33.773Z,6.77
2022-12-26T08:37:02.150Z,6.80
2022-12-26T08:39:30.891Z,6.81
2022-12-26T08:41:59.299Z,6.81
2022-12-26T08:44:29.304Z,6.84
2022-12-26T08:46:57.929Z,6.85
2022-12-26T08:49:26.340Z,6.85
2022-12-26T08:51:55.317Z,6.73
2022-12-26T08:54:25.012Z,6.79
2022-12-26T08:56:53.395Z,6.81
2022-12-26T08:59:22.502Z,6.80
2022-12-26T09:01:53.358Z,6.78
2022-12-26T09:04:21.827Z,6.80
2022-12-26T09:06:49.895Z,6.82
2022-12-26T09:09:18.465Z,6.83
2022-12-26T09:11:46.769Z,6.79
2022-12-26T09:14:15.078Z,6.82
2022-12-26T09:16:50.443Z,6.81
2022-12-26T09:19:22.419Z,6.82
2022-12-26T09:22:13.555Z,6.85
2022-12-26T09:24:42.026Z,6.82
2022-12-26T09:27:10.707Z,6.86
2022-12-26T09:29:39.453Z,6.86
2022-12-26T09:32:08.213Z,6.90
2022-12-26T09:34:38.518Z,6.90
2022-12-26T09:37:06.919Z,6.95
2022-12-26T09:39:35.651Z,6.95
2022-12-26T09:42:15.911Z,6.89
2022-12-26T09:44:52.861Z,6.95
2022-12-26T09:47:33.100Z,6.96
2022-12-26T09:50:09.577Z,7.00
2022-12-26T09:52:45.180Z,6.98
2022-12-26T09:55:26.607Z,6.95
2022-12-26T09:58:00.393Z,7.01
2022-12-26T10:00:33.717Z,7.03
2022-12-26T10:03:03.664Z,7.05
2022-12-26T10:05:39.784Z,7.02
2022-12-26T10:08:27.198Z,7.00
2022-12-26T10:11:02.435Z,7.04
2022-12-26T10:13:38.319Z,7.01
2022-12-26T10:16:12.855Z,7.02
2022-12-26T10:18:52.496Z,7.00
2022-12-26T10:21:36.709Z,7.00
2022-12-26T10:24:09.931Z,7.08
2022-12-26T10:26:42.573Z,7.11
2022-12-26T10:29:18.052Z,7.09
2022-12-26T10:31:52.178Z,7.12
2022-12-26T10:34:25.571Z,7.14
2022-12-26T10:37:00.453Z,7.08
2022-12-26T10:39:35.729Z,7.11
2022-12-26T10:42:12.967Z,7.11
2022-12-26T10:44:42.207Z,7.17
2022-12-26T10:47:23.634Z,7.13
2022-12-26T10:49:52.534Z,7.15
2022-12-26T10:52:27.801Z,7.10
2022-12-26T10:55:27.955Z,7.08
2022-12-26T10:57:51.870Z,7.09
2022-12-26T11:00:24.543Z,7.11
2022-12-26T11:03:07.428Z,7.05
2022-12-26T11:08:33.360Z,7.07
2022-12-26T11:11:08.636Z,6.97
2022-12-26T11:13:41.095Z,7.07
2022-12-26T11:16:11.572Z,7.09
2022-12-26T11:18:48.346Z,6.96
2022-12-26T11:21:23.371Z,7.06
2022-12-26T11:23:56.183Z,7.11
2022-12-26T11:26:27.033Z,7.12
2022-12-26T11:29:08.405Z,7.04
2022-12-26T11:31:37.959Z,7.11
2022-12-26T11:34:11.553Z,7.06
2022-12-26T11:36:46.735Z,7.13
2022-12-26T11:39:24.718Z,7.08
2022-12-26T11:41:54.175Z,7.14
2022-12-26T11:44:27.754Z,7.11
2022-12-26T11:47:00.580Z,7.12
2022-12-26T11:49:33.896Z,7.13
2022-12-26T11:52:04.931Z,7.11
2022-12-26T11:54:36.657Z,7.07
2022-12-26T11:57:20.585Z,7.04
2022-12-26T11:59:49.996Z,7.11
2022-12-26T12:02:23.937Z,7.10
2022-12-26T12:04:55.016Z,7.12
2022-12-26T12:07:44.317Z,7.09
2022-12-26T12:10:36.702Z,7.04
2022-12-26T12:13:12.874Z,7.04
2022-12-26T12:15:51.446Z,7.10
2022-12-26T12:18:29.288Z,7.13
2022-12-26T12:21:03.841Z,7.13
2022-12-26T12:23:52.721Z,7.09
2022-12-26T12:26:30.621Z,7.10
2022-12-26T12:29:21.643Z,7.07
2022-12-26T12:32:04.841Z,7.06
2022-12-26T12:34:47.309Z,7.09
2022-12-26T12:37:30.156Z,7.05
2022-12-26T12:40:06.772Z,7.01
2022-12-26T12:42:49.119Z,7.03
2022-12-26T12:45:30.415Z,6.86
2022-12-26T12:48:14.180Z,7.00
2022-12-26T12:50:56.165Z,6.98
2022-12-26T12:53:39.065Z,7.02
2022-12-26T12:56:17.066Z,7.03
2022-12-26T12:58:54.074Z,7.06
2022-12-26T13:01:26.794Z,7.07
2022-12-26T13:04:03.800Z,7.10
2022-12-26T13:06:38.339Z,6.97
2022-12-26T13:09:13.534Z,7.06
2022-12-26T13:11:46.436Z,7.03
2022-12-26T13:14:20.798Z,6.97
2022-12-26T13:16:53.675Z,6.99
2022-12-26T13:19:27.483Z,6.93
2022-12-26T13:22:02.832Z,6.95
2022-12-26T13:24:34.337Z,6.96
2022-12-26T13:27:12.842Z,7.01
2022-12-26T13:29:44.508Z,6.98
2022-12-26T13:32:22.885Z,6.98
2022-12-26T13:34:52.738Z,7.01
2022-12-26T13:38:00.592Z,6.95
2022-12-26T13:40:32.135Z,6.91
2022-12-26T13:43:22.293Z,6.99
2022-12-26T13:45:55.190Z,6.96
2022-12-26T13:48:55.605Z,6.96
2022-12-26T13:51:54.903Z,7.01
2022-12-26T13:54:25.368Z,7.09
2022-12-26T13:57:29.038Z,6.97
2022-12-26T14:00:19.592Z,7.01
2022-12-26T14:03:29.315Z,7.01
2022-12-26T14:06:35.729Z,7.01
2022-12-26T14:09:20.754Z,7.03
2022-12-26T14:12:12.480Z,7.04
2022-12-26T14:14:59.166Z,7.04
2022-12-26T14:17:38.950Z,7.00
2022-12-26T14:20:22.236Z,6.96
2022-12-26T14:23:04.906Z,6.99
2022-12-26T14:25:50.923Z,7.00
2022-12-26T14:28:29.183Z,6.97
2022-12-26T14:31:14.268Z,6.92
2022-12-26T14:33:53.355Z,6.96
2022-12-26T14:36:33.781Z,6.95
2022-12-26T14:39:19.949Z,6.82
2022-12-26T14:42:37.660Z,6.88
2022-12-26T14:45:14.309Z,6.99
2022-12-26T14:47:45.097Z,6.98
2022-12-26T14:50:47.592Z,6.92
2022-12-26T14:53:31.051Z,6.95
2022-12-26T14:56:02.537Z,6.96
2022-12-26T14:58:44.983Z,6.93
2022-12-26T15:01:58.764Z,6.98
2022-12-26T15:05:04.253Z,6.95
2022-12-26T15:08:04.872Z,6.97
2022-12-26T15:11:05.605Z,7.00
2022-12-26T15:14:06.509Z,6.85
2022-12-26T15:16:51.205Z,6.87
2022-12-26T15:19:55.592Z,7.01
2022-12-26T15:23:00.764Z,7.00
2022-12-26T15:26:03.507Z,6.93
2022-12-26T15:29:15.685Z,6.95
2022-12-26T15:31:54.823Z,6.97
2022-12-26T15:34:46.576Z,6.89
2022-12-26T15:37:38.944Z,6.90
2022-12-26T15:40:16.217Z,6.94
2022-12-26T15:42:56.970Z,6.94
2022-12-26T15:45:39.316Z,6.92
2022-12-26T15:48:17.697Z,6.84
2022-12-26T15:50:57.995Z,7.00
2022-12-26T15:53:39.836Z,6.99
2022-12-26T15:56:48.134Z,7.06
2022-12-26T15:59:51.053Z,6.97
2022-12-26T16:02:39.389Z,7.10
2022-12-26T16:05:29.346Z,7.10
2022-12-26T16:08:19.395Z,7.09
2022-12-26T16:10:54.144Z,7.20
2022-12-26T16:13:24.581Z,7.19
2022-12-26T16:15:58.048Z,7.29
2022-12-26T16:18:31.058Z,7.15
2022-12-26T16:21:19.257Z,7.14
2022-12-26T16:23:49.787Z,7.25
2022-12-26T16:26:21.793Z,7.26
2022-12-26T16:28:50.455Z,7.30
2022-12-26T16:31:22.105Z,7.29
2022-12-26T16:33:54.032Z,7.31
2022-12-26T16:36:25.642Z,7.27
2022-12-26T16:38:55.190Z,7.33
2022-12-26T16:41:29.401Z,7.38
2022-12-26T16:44:19.455Z,7.33
2022-12-26T16:46:49.285Z,7.29
2022-12-26T16:49:27.672Z,7.27
2022-12-26T16:51:56.994Z,7.15
2022-12-26T16:54:37.216Z,6.93
2022-12-26T16:57:10.465Z,6.70
2022-12-26T16:59:49.293Z,6.64
2022-12-26T17:02:23.292Z,6.36
2022-12-26T17:04:58.555Z,6.30
2022-12-26T17:07:28.835Z,6.21
